createdAt,value
2019-06-08T00:01:28.271Z,93487.97
2019-06-08T00:04:01.124Z,93475.73
2019-06-08T00:06:40.294Z,93477.92
2019-06-08T00:09:13.072Z,93476.13
2019-06-08T00:11:51.173Z,93477.95
2019-06-08T00:14:25.644Z,93486.69
2019-06-08T00:17:31.374Z,93469.72
2019-06-08T00:19:58.676Z,93466.83
2019-06-08T00:22:38.916Z,93467.09
2019-06-08T00:25:19.004Z,93462.27
2019-06-08T00:27:52.482Z,93464.48
2019-06-08T00:30:25.264Z,93469.05
2019-06-08T00:32:58.155Z,93473.26
2019-06-08T00:35:41.238Z,93472.81
2019-06-08T00:38:16.908Z,93466.64
2019-06-08T00:40:54.305Z,93461.96
2019-06-08T00:43:27.674Z,93468.34
2019-06-08T00:46:03.489Z,93461.34
2019-06-08T00:48:36.215Z,93459.93
2019-06-08T00:51:12.585Z,93454.84
2019-06-08T00:53:47.592Z,93453.61
2019-06-08T00:56:25.853Z,93456.45
2019-06-08T00:59:03.852Z,93465.50
2019-06-08T01:01:40.724Z,93459.28
2019-06-08T01:04:20.618Z,93458.12
2019-06-08T01:06:54.338Z,93462.13
2019-06-08T01:09:31.205Z,93466.59
2019-06-08T01:12:09.668Z,93460.23
2019-06-08T01:14:47.648Z,93453.96
2019-06-08T01:17:21.098Z,93456.73
2019-06-08T01:19:56.661Z,93460.63
2019-06-08T01:22:29.628Z,93462.52
2019-06-08T01:25:02.463Z,93457.90
2019-06-08T01:27:35.330Z,93463.73
2019-06-08T01:30:10.598Z,93463.17
2019-06-08T01:32:49.446Z,93466.19
2019-06-08T01:35:26.941Z,93466.64
2019-06-08T01:38:01.113Z,93460.61
2019-06-08T01:40:33.935Z,93457.72
2019-06-08T01:43:08.427Z,93451.44
2019-06-08T01:45:44.241Z,93455.39
2019-06-08T01:48:20.276Z,93459.03
2019-06-08T01:50:52.638Z,93459.58
2019-06-08T01:53:29.243Z,93462.05
2019-06-08T01:56:03.121Z,93467.86
2019-06-08T01:58:35.983Z,93466.94
2019-06-08T02:01:08.783Z,93467.07
2019-06-08T02:03:41.663Z,93471.66
2019-06-08T02:06:14.443Z,93460.48
2019-06-08T02:08:49.733Z,93462.70
2019-06-08T02:11:22.538Z,93465.45
2019-06-08T02:14:00.179Z,93469.08
2019-06-08T02:16:39.678Z,93472.12
2019-06-08T02:19:20.841Z,93474.67
2019-06-08T02:22:02.395Z,93477.81
2019-06-08T02:24:35.534Z,93478.34
2019-06-08T02:27:08.691Z,93484.17
2019-06-08T02:29:49.200Z,93477.16
2019-06-08T02:32:33.042Z,93480.00
2019-06-08T02:35:10.174Z,93477.16
2019-06-08T02:37:43.071Z,93486.34
2019-06-08T02:40:18.851Z,93478.73
2019-06-08T02:42:57.198Z,93487.27
2019-06-08T02:45:34.048Z,93484.30
2019-06-08T02:48:08.598Z,93486.36
2019-06-08T02:50:43.384Z,93494.94
2019-06-08T02:53:16.237Z,93493.34
2019-06-08T02:55:50.687Z,93498.06
2019-06-08T02:58:23.580Z,93506.98
2019-06-08T03:00:56.774Z,93513.16
2019-06-08T03:03:29.670Z,93520.42
2019-06-08T03:06:07.652Z,93522.00
2019-06-08T03:08:43.518Z,93538.02
2019-06-08T03:11:17.496Z,93549.22
2019-06-08T03:13:57.369Z,93546.83
2019-06-08T03:16:33.404Z,93546.53
2019-06-08T03:19:21.651Z,93548.34
2019-06-08T03:21:49.848Z,93556.59
2019-06-08T03:24:32.245Z,93559.34
2019-06-08T03:27:02.727Z,93565.02
2019-06-08T03:29:41.579Z,93564.55
2019-06-08T03:32:20.077Z,93574.32
2019-06-08T03:34:56.689Z,93564.19
2019-06-08T03:37:35.805Z,93565.33
2019-06-08T03:40:13.113Z,93578.11
2019-06-08T03:42:45.964Z,93579.72
2019-06-08T03:45:18.709Z,93583.48
2019-06-08T03:47:51.570Z,93589.82
2019-06-08T03:50:24.384Z,93598.34
2019-06-08T03:53:09.451Z,93600.87
2019-06-08T03:55:48.036Z,93603.88
2019-06-08T03:58:21.350Z,93613.19
2019-06-08T04:01:06.119Z,93612.84
2019-06-08T04:03:39.964Z,93614.75
2019-06-08T04:06:15.330Z,93617.44
2019-06-08T04:08:49.950Z,93617.76
2019-06-08T04:11:27.015Z,93618.85
2019-06-08T04:14:02.793Z,93619.34
2019-06-08T04:16:40.031Z,93623.13
2019-06-08T04:19:15.625Z,93620.27
2019-06-08T04:22:02.335Z,93629.44
2019-06-08T04:24:34.754Z,93631.19
2019-06-08T04:27:08.211Z,93640.48
2019-06-08T04:29:41.784Z,93644.94
2019-06-08T04:32:15.439Z,93647.14
2019-06-08T04:34:49.989Z,93657.09
2019-06-08T04:37:22.873Z,93653.30
2019-06-08T04:39:57.388Z,93665.48
2019-06-08T04:42:39.362Z,93663.09
2019-06-08T04:45:16.401Z,93675.58
2019-06-08T04:47:52.219Z,93677.80
2019-06-08T04:50:28.075Z,93677.47
2019-06-08T04:53:00.945Z,93686.44
2019-06-08T04:55:34.919Z,93691.38
2019-06-08T04:58:15.760Z,93688.55
2019-06-08T05:00:50.834Z,93695.78
2019-06-08T05:03:31.717Z,93697.86
2019-06-08T05:06:04.639Z,93707.48
2019-06-08T05:08:38.945Z,93703.06
2019-06-08T05:11:11.986Z,93711.13
2019-06-08T05:13:45.337Z,93710.64
2019-06-08T05:16:19.382Z,93710.30
2019-06-08T05:18:54.434Z,93720.11
2019-06-08T05:21:30.150Z,93731.51
2019-06-08T05:24:08.251Z,93733.56
2019-06-08T05:26:41.907Z,93733.86
2019-06-08T05:29:20.921Z,93739.88
2019-06-08T05:32:01.476Z,93742.09
2019-06-08T05:34:36.423Z,93744.47
2019-06-08T05:37:10.808Z,93749.38
2019-06-08T05:39:49.913Z,93751.58
2019-06-08T05:42:24.786Z,93753.64
2019-06-08T05:45:06.123Z,93759.14
2019-06-08T05:47:39.732Z,93758.20
2019-06-08T05:50:12.714Z,93767.69
2019-06-08T05:52:50.447Z,93775.44
2019-06-08T05:55:25.886Z,93775.91
2019-06-08T05:58:02.330Z,93777.81
2019-06-08T06:00:38.116Z,93781.92
2019-06-08T06:03:14.214Z,93786.97
2019-06-08T06:05:49.010Z,93782.55
2019-06-08T06:08:21.718Z,93791.87
2019-06-08T06:10:54.613Z,93789.98
2019-06-08T06:13:34.981Z,93797.41
2019-06-08T06:16:07.665Z,93799.80
2019-06-08T06:18:44.980Z,93798.36
2019-06-08T06:21:20.875Z,93804.21
2019-06-08T06:23:55.238Z,93804.83
2019-06-08T06:26:29.968Z,93805.39
2019-06-08T06:29:02.907Z,93809.88
2019-06-08T06:31:35.849Z,93811.60
2019-06-08T06:34:08.514Z,93813.25
2019-06-08T06:36:47.771Z,93812.29
2019-06-08T06:39:20.910Z,93819.66
2019-06-08T06:41:53.881Z,93823.84
2019-06-08T06:44:37.500Z,93824.70
2019-06-08T06:47:10.363Z,93829.25
2019-06-08T06:49:46.281Z,93832.64
2019-06-08T06:52:19.341Z,93834.91
2019-06-08T06:54:53.284Z,93837.59
2019-06-08T06:57:26.563Z,93836.37
2019-06-08T07:00:01.797Z,93843.97
2019-06-08T07:02:37.225Z,93842.83
2019-06-08T07:05:10.200Z,93839.41
2019-06-08T07:07:44.124Z,93857.10
2019-06-08T07:10:17.411Z,93851.48
2019-06-08T07:12:52.820Z,93844.52
2019-06-08T07:15:26.355Z,93849.30
2019-06-08T07:17:59.096Z,93847.43
2019-06-08T07:20:34.300Z,93853.29
2019-06-08T07:23:07.023Z,93856.84
2019-06-08T07:25:40.435Z,93856.23
2019-06-08T07:28:16.147Z,93858.17
2019-06-08T07:30:54.863Z,93846.14
2019-06-08T07:33:31.111Z,93847.12
2019-06-08T07:36:03.825Z,93852.71
2019-06-08T07:38:38.353Z,93859.67
2019-06-08T07:41:11.125Z,93857.11
2019-06-08T07:43:43.818Z,93863.79
2019-06-08T07:46:16.739Z,93849.33
2019-06-08T07:48:54.473Z,93856.70
2019-06-08T07:51:33.701Z,93858.08
2019-06-08T07:54:06.445Z,93847.16
2019-06-08T07:56:39.191Z,93853.08
2019-06-08T07:59:15.259Z,93853.26
2019-06-08T08:01:50.003Z,93857.13
2019-06-08T08:04:22.668Z,93857.36
2019-06-08T08:07:20.864Z,93848.60
2019-06-08T08:09:54.953Z,93858.33
2019-06-08T08:12:30.958Z,93862.27
2019-06-08T08:15:03.673Z,93865.42
2019-06-08T08:17:39.479Z,93864.97
2019-06-08T08:20:14.008Z,93868.14
2019-06-08T08:22:49.216Z,93880.63
2019-06-08T08:25:28.099Z,93876.41
2019-06-08T08:28:03.586Z,93870.77
2019-06-08T08:30:37.717Z,93871.84
2019-06-08T08:33:10.805Z,93874.81
2019-06-08T08:35:51.031Z,93881.31
2019-06-08T08:38:27.513Z,93883.25
2019-06-08T08:41:07.204Z,93878.76
2019-06-08T08:43:39.094Z,93888.58
2019-06-08T08:46:14.301Z,93887.41
2019-06-08T08:48:52.451Z,93891.81
2019-06-08T08:51:27.763Z,93897.66
2019-06-08T08:54:04.877Z,93897.44
2019-06-08T08:56:38.277Z,93901.02
2019-06-08T08:59:11.378Z,93903.91
2019-06-08T09:01:51.266Z,93900.87
2019-06-08T09:04:28.305Z,93910.73
2019-06-08T09:07:06.943Z,93904.83
2019-06-08T09:09:38.697Z,93910.02
2019-06-08T09:12:13.805Z,93903.89
2019-06-08T09:14:51.896Z,93909.41
2019-06-08T09:17:27.981Z,93915.33
2019-06-08T09:20:03.813Z,93927.08
2019-06-08T09:22:52.034Z,93915.63
2019-06-08T09:25:17.982Z,93923.75
2019-06-08T09:27:54.604Z,93925.86
2019-06-08T09:30:34.784Z,93930.75
2019-06-08T09:33:08.096Z,93936.94
2019-06-08T09:35:47.699Z,93928.73
2019-06-08T09:38:19.197Z,93942.41
2019-06-08T09:40:53.241Z,93940.18
2019-06-08T09:43:32.069Z,93935.78
2019-06-08T09:46:05.560Z,93938.95
2019-06-08T09:48:39.329Z,93944.34
2019-06-08T09:51:15.328Z,93949.50
2019-06-08T09:53:48.279Z,93948.59
2019-06-08T09:56:28.019Z,93938.14
2019-06-08T09:59:07.212Z,93937.85
2019-06-08T10:01:38.919Z,93943.82
2019-06-08T10:04:13.404Z,93953.75
2019-06-08T10:06:47.962Z,93957.70
2019-06-08T10:09:25.239Z,93964.16
2019-06-08T10:11:59.578Z,93961.61
2019-06-08T10:14:34.754Z,93958.73
2019-06-08T10:17:08.866Z,93961.27
2019-06-08T10:19:42.029Z,93954.82
2019-06-08T10:22:14.823Z,93956.07
2019-06-08T10:24:49.884Z,93959.80
2019-06-08T10:27:22.956Z,93964.16
2019-06-08T10:29:58.615Z,93967.83
2019-06-08T10:32:31.359Z,93966.38
2019-06-08T10:35:10.148Z,93967.09
2019-06-08T10:37:41.798Z,93970.02
2019-06-08T10:40:14.729Z,93977.37
2019-06-08T10:42:49.880Z,93977.20
2019-06-08T10:45:22.708Z,93976.05
2019-06-08T10:47:59.681Z,93979.81
2019-06-08T10:50:33.729Z,93985.52
2019-06-08T10:53:10.553Z,93978.45
2019-06-08T10:55:41.114Z,93983.45
2019-06-08T10:58:19.415Z,93989.64
2019-06-08T11:00:52.757Z,93993.72
2019-06-08T11:03:25.495Z,93994.92
2019-06-08T11:06:00.722Z,93989.73
2019-06-08T11:08:33.089Z,93986.52
2019-06-08T11:11:11.982Z,93988.74
2019-06-08T11:13:50.068Z,93990.91
2019-06-08T11:16:25.617Z,93999.00
2019-06-08T11:19:00.977Z,93991.77
2019-06-08T11:21:34.452Z,93988.52
2019-06-08T11:24:23.113Z,93985.02
2019-06-08T11:26:41.882Z,93984.06
2019-06-08T11:29:14.720Z,93989.97
2019-06-08T11:31:50.947Z,93988.19
2019-06-08T11:34:28.727Z,94000.20
2019-06-08T11:37:03.638Z,94001.95
2019-06-08T11:39:38.206Z,93995.08
2019-06-08T11:42:12.956Z,93995.55
2019-06-08T11:44:51.225Z,93989.58
2019-06-08T11:47:22.844Z,93991.53
2019-06-08T11:49:58.203Z,93990.39
2019-06-08T11:52:32.916Z,93991.53
2019-06-08T11:55:10.963Z,94001.03
2019-06-08T11:57:44.308Z,93993.56
2019-06-08T12:00:25.222Z,93996.02
2019-06-08T12:02:53.262Z,93995.17
2019-06-08T12:05:27.842Z,93993.88
2019-06-08T12:08:08.447Z,93993.30
2019-06-08T12:10:41.131Z,93999.01
2019-06-08T12:13:17.710Z,93989.95
2019-06-08T12:15:49.961Z,94006.31
2019-06-08T12:18:24.667Z,93997.31
2019-06-08T12:21:01.503Z,94000.25
2019-06-08T12:23:35.284Z,93998.78
2019-06-08T12:26:12.257Z,93995.72
2019-06-08T12:28:50.815Z,93999.86
2019-06-08T12:31:40.075Z,94003.01
2019-06-08T12:34:13.469Z,94005.70
2019-06-08T12:36:49.146Z,94011.86
2019-06-08T12:39:22.076Z,94015.55
2019-06-08T12:41:55.461Z,94011.56
2019-06-08T12:44:29.120Z,94018.97
2019-06-08T12:47:02.790Z,94016.61
2019-06-08T12:49:40.102Z,94025.28
2019-06-08T12:52:13.862Z,94029.42
2019-06-08T12:54:59.280Z,94037.56
2019-06-08T12:57:22.992Z,94034.02
2019-06-08T12:59:59.817Z,94035.25
2019-06-08T13:02:30.387Z,94042.64
2019-06-08T13:05:03.104Z,94027.20
2019-06-08T13:07:38.592Z,94036.02
2019-06-08T13:10:11.526Z,94037.88
2019-06-08T13:12:50.054Z,94033.52
2019-06-08T13:15:25.047Z,94026.63
2019-06-08T13:18:01.470Z,94029.99
2019-06-08T13:20:39.186Z,94024.27
2019-06-08T13:23:13.058Z,94034.71
2019-06-08T13:25:48.443Z,94050.21
2019-06-08T13:28:41.255Z,94051.18
2019-06-08T13:31:24.091Z,94054.77
2019-06-08T13:33:58.542Z,94044.73
2019-06-08T13:36:29.696Z,94038.38
2019-06-08T13:39:10.019Z,94035.89
2019-06-08T13:41:45.623Z,94048.12
2019-06-08T13:44:18.227Z,94038.70
2019-06-08T13:46:52.400Z,94042.67
2019-06-08T13:49:29.667Z,94035.23
2019-06-08T13:52:00.208Z,94030.17
2019-06-08T13:54:38.025Z,94035.53
2019-06-08T13:57:10.595Z,94038.00
2019-06-08T13:59:51.670Z,94043.70
2019-06-08T14:02:31.627Z,94041.06
2019-06-08T14:05:03.445Z,94057.70
2019-06-08T14:07:38.095Z,94049.27
2019-06-08T14:10:14.596Z,94058.34
2019-06-08T14:12:48.852Z,94057.11
2019-06-08T14:15:23.414Z,94059.22
2019-06-08T14:17:59.322Z,94055.11
2019-06-08T14:20:34.656Z,94054.70
2019-06-08T14:23:08.954Z,94060.98
2019-06-08T14:25:50.665Z,94050.13
2019-06-08T14:28:22.872Z,94055.34
2019-06-08T14:30:55.195Z,94052.70
2019-06-08T14:33:32.061Z,94054.43
2019-06-08T14:36:03.357Z,94057.47
2019-06-08T14:38:42.095Z,94058.61
2019-06-08T14:41:17.822Z,94052.14
2019-06-08T14:43:54.469Z,94058.11
2019-06-08T14:46:28.796Z,94058.03
2019-06-08T14:49:05.393Z,94063.64
2019-06-08T14:51:52.287Z,94056.35
2019-06-08T14:54:30.873Z,94068.19
2019-06-08T14:57:02.214Z,94066.36
2019-06-08T14:59:39.167Z,94064.83
2019-06-08T15:02:19.355Z,94071.34
2019-06-08T15:04:54.351Z,94066.94
2019-06-08T15:07:32.553Z,94072.63
2019-06-08T15:10:09.990Z,94076.66
2019-06-08T15:12:45.678Z,94077.91
2019-06-08T15:15:19.815Z,94081.53
2019-06-08T15:17:58.098Z,94074.98
2019-06-08T15:20:30.620Z,94072.28
2019-06-08T15:23:05.891Z,94078.30
2019-06-08T15:25:42.618Z,94083.87
2019-06-08T15:28:15.484Z,94079.73
2019-06-08T15:30:54.328Z,94094.90
2019-06-08T15:33:31.022Z,94097.77
2019-06-08T15:36:03.593Z,94105.43
2019-06-08T15:38:38.409Z,94113.55
2019-06-08T15:41:12.870Z,94115.23
2019-06-08T15:43:48.134Z,94102.05
2019-06-08T15:46:22.008Z,94111.27
2019-06-08T15:48:55.233Z,94109.02
2019-06-08T15:51:37.579Z,94111.96
2019-06-08T15:54:08.538Z,94113.33
2019-06-08T15:56:48.573Z,94110.38
2019-06-08T15:59:18.217Z,94106.61
2019-06-08T16:01:52.984Z,94110.77
2019-06-08T16:04:27.810Z,94112.67
2019-06-08T16:07:01.982Z,94124.58
2019-06-08T16:09:39.640Z,94124.81
2019-06-08T16:12:15.844Z,94120.91
2019-06-08T16:14:48.791Z,94122.44
2019-06-08T16:17:21.546Z,94125.55
2019-06-08T16:19:59.208Z,94138.47
2019-06-08T16:22:33.859Z,94137.47
2019-06-08T16:25:09.211Z,94142.73
2019-06-08T16:27:42.090Z,94153.28
2019-06-08T16:30:16.408Z,94166.05
2019-06-08T16:32:49.240Z,94162.66
2019-06-08T16:35:22.233Z,94165.70
2019-06-08T16:37:54.965Z,94163.70
2019-06-08T16:40:27.934Z,94172.59
2019-06-08T16:43:06.478Z,94169.19
2019-06-08T16:45:42.540Z,94172.22
2019-06-08T16:48:16.170Z,94172.55
2019-06-08T16:50:52.764Z,94176.91
2019-06-08T16:53:44.463Z,94175.42
2019-06-08T16:56:20.715Z,93743.98
2019-06-08T16:58:54.997Z,94181.25
2019-06-08T17:01:32.927Z,94189.16
2019-06-08T17:04:06.046Z,94187.44
2019-06-08T17:06:43.243Z,94187.46
2019-06-08T17:09:19.045Z,94193.89
2019-06-08T17:11:54.566Z,94185.50
2019-06-08T17:14:28.269Z,94194.69
2019-06-08T17:17:03.037Z,94198.77
2019-06-08T17:19:43.028Z,94196.34
2019-06-08T17:22:18.555Z,94190.16
2019-06-08T17:24:54.219Z,94191.19
2019-06-08T17:27:32.527Z,94187.52
2019-06-08T17:30:08.595Z,94191.45
2019-06-08T17:32:40.586Z,94187.79
2019-06-08T17:35:18.010Z,94190.95
2019-06-08T17:37:50.595Z,94190.58
2019-06-08T17:40:27.395Z,94188.91
2019-06-08T17:43:00.303Z,94184.30
2019-06-08T17:45:42.795Z,94194.63
2019-06-08T17:48:15.959Z,94199.56
2019-06-08T17:50:52.478Z,94198.48
2019-06-08T17:53:28.500Z,94198.83
2019-06-08T17:56:10.511Z,94198.83
2019-06-08T17:58:47.473Z,94199.70
2019-06-08T18:01:27.440Z,94204.45
2019-06-08T18:04:00.006Z,94202.40
2019-06-08T18:06:33.674Z,94207.10
2019-06-08T18:09:17.345Z,94213.16
2019-06-08T18:11:50.051Z,94209.34
2019-06-08T18:14:28.816Z,94213.61
2019-06-08T18:17:03.642Z,94220.77
2019-06-08T18:19:39.826Z,94213.80
2019-06-08T18:22:15.239Z,94209.99
2019-06-08T18:24:47.750Z,94216.50
2019-06-08T18:27:20.075Z,94228.28
2019-06-08T18:29:54.823Z,94226.05
2019-06-08T18:32:27.636Z,94225.23
2019-06-08T18:35:00.550Z,94226.67
2019-06-08T18:37:39.425Z,94226.22
2019-06-08T18:40:13.384Z,94237.30
2019-06-08T18:42:48.475Z,94233.00
2019-06-08T18:45:27.566Z,94238.23
2019-06-08T18:48:03.113Z,94239.80
2019-06-08T18:50:39.121Z,94231.27
2019-06-08T18:53:10.548Z,94242.24
2019-06-08T18:55:50.127Z,94251.84
2019-06-08T18:58:25.089Z,94252.83
2019-06-08T19:00:58.220Z,94260.09
2019-06-08T19:03:31.992Z,94259.63
2019-06-08T19:06:11.930Z,94259.00
2019-06-08T19:08:48.856Z,94265.72
2019-06-08T19:11:28.036Z,94277.35
2019-06-08T19:14:00.607Z,94276.87
2019-06-08T19:16:40.841Z,94280.68
2019-06-08T19:19:13.669Z,94283.84
2019-06-08T19:21:51.909Z,94282.38
2019-06-08T19:24:24.672Z,94280.33
2019-06-08T19:26:58.939Z,94287.94
2019-06-08T19:29:38.184Z,94289.67
2019-06-08T19:32:12.083Z,94296.33
2019-06-08T19:34:53.254Z,94301.83
2019-06-08T19:37:23.252Z,94298.55
2019-06-08T19:39:59.560Z,94310.58
2019-06-08T19:42:40.021Z,94305.63
2019-06-08T19:45:14.611Z,94312.77
2019-06-08T19:47:54.791Z,94312.65
2019-06-08T19:50:31.437Z,94320.25
2019-06-08T19:53:07.988Z,94325.74
2019-06-08T19:55:45.444Z,94322.23
2019-06-08T19:58:19.660Z,94325.74
2019-06-08T20:00:54.574Z,94326.82
2019-06-08T20:03:29.791Z,94329.94
2019-06-08T20:06:08.943Z,94324.83
2019-06-08T20:08:42.898Z,94324.59
2019-06-08T20:11:23.086Z,94326.59
2019-06-08T20:13:59.715Z,94328.98
2019-06-08T20:16:34.255Z,94329.08
2019-06-08T20:19:08.096Z,94325.39
2019-06-08T20:21:42.788Z,94331.36
2019-06-08T20:24:18.289Z,94338.42
2019-06-08T20:29:28.291Z,94338.56
2019-06-08T20:32:00.953Z,94343.58
2019-06-08T20:34:33.885Z,94340.09
2019-06-08T20:37:08.953Z,94339.48
2019-06-08T20:39:57.292Z,94345.27
2019-06-08T20:42:17.391Z,94349.69
2019-06-08T20:44:53.166Z,94346.99
2019-06-08T20:47:27.637Z,94347.22
2019-06-08T20:50:00.784Z,94347.50
2019-06-08T20:52:33.625Z,94345.11
2019-06-08T20:55:07.736Z,94337.26
2019-06-08T20:57:40.935Z,94349.80
2019-06-08T21:00:13.729Z,94338.52
2019-06-08T21:02:49.841Z,94341.60
2019-06-08T21:05:30.147Z,94347.98
2019-06-08T21:08:08.731Z,94344.24
2019-06-08T21:10:54.639Z,94347.34
2019-06-08T21:13:37.358Z,94340.30
2019-06-08T21:16:19.243Z,94354.66
2019-06-08T21:19:07.494Z,94356.62
2019-06-08T21:21:42.548Z,94353.30
2019-06-08T21:24:28.054Z,94361.92
2019-06-08T21:27:08.162Z,94359.31
2019-06-08T21:29:56.194Z,94364.31
2019-06-08T21:32:31.466Z,94361.78
2019-06-08T21:35:07.622Z,94368.73
2019-06-08T21:37:50.707Z,94371.91
2019-06-08T21:40:27.972Z,94365.11
2019-06-08T21:43:02.868Z,94368.25
2019-06-08T21:45:41.235Z,94363.75
2019-06-08T21:48:27.491Z,94360.25
2019-06-08T21:51:08.479Z,94365.75
2019-06-08T21:56:51.596Z,94372.86
2019-06-08T21:59:32.065Z,94375.03
2019-06-08T22:02:04.493Z,94376.41
2019-06-08T22:04:41.993Z,94378.00
2019-06-08T22:07:28.331Z,94387.72
2019-06-08T22:10:07.270Z,94384.53
2019-06-08T22:12:50.736Z,94389.73
2019-06-08T22:15:27.713Z,94392.41
2019-06-08T22:18:08.011Z,94386.92
2019-06-08T22:20:43.623Z,94385.77
2019-06-08T22:23:23.151Z,94389.88
2019-06-08T22:26:03.673Z,94393.06
2019-06-08T22:28:41.890Z,94386.76
2019-06-08T22:31:23.078Z,94382.41
2019-06-08T22:34:02.055Z,94386.82
2019-06-08T22:36:37.196Z,94387.41
2019-06-08T22:39:14.568Z,94386.78
2019-06-08T22:41:47.820Z,94393.36
2019-06-08T22:44:21.273Z,94392.77
2019-06-08T22:46:57.713Z,94399.09
2019-06-08T22:49:29.758Z,94398.02
2019-06-08T22:52:08.137Z,94395.67
2019-06-08T22:54:40.963Z,94400.23
2019-06-08T22:57:18.399Z,94398.22
2019-06-08T22:59:58.822Z,94391.20
2019-06-08T23:02:33.445Z,94394.59
2019-06-08T23:05:08.842Z,94392.48
2019-06-08T23:07:41.538Z,94389.80
2019-06-08T23:10:22.436Z,94393.21
2019-06-08T23:12:56.768Z,94394.95
2019-06-08T23:15:35.258Z,94398.87
2019-06-08T23:18:28.553Z,94403.12
2019-06-08T23:21:04.285Z,94410.83
2019-06-08T23:23:42.973Z,94398.65
2019-06-08T23:26:18.132Z,94399.73
2019-06-08T23:28:56.068Z,94403.88
2019-06-08T23:31:35.314Z,94399.22
2019-06-08T23:34:11.301Z,94398.92
2019-06-08T23:36:57.563Z,94399.09
2019-06-08T23:39:19.022Z,94398.48
2019-06-08T23:41:51.743Z,94396.48
2019-06-08T23:44:33.607Z,94390.53
2019-06-08T23:47:06.393Z,94390.23
2019-06-08T23:49:41.180Z,94397.27
2019-06-08T23:52:13.979Z,94394.81
2019-06-08T23:54:48.884Z,94389.88
2019-06-08T23:57:31.535Z,94391.33
